Terminal Aerodrome Forecast
Issued by NWS

Home | Current Version | Previous Version | Text Only | Print | Product List | Glossary On
Versions: 1 2 3 4 5 6 7 8 9 10 11 12 13 14 15 16 17 18 19 20 21 22 23 24 25 26 27 28
000
FTUS42 KGSP 020202 AAA
TAFHKY
TAF AMD
KHKY 020202Z 0202/0224 20005KT 6SM -SHRA BR SCT025 OVC035
      TEMPO 0203/0206 5SM RA BR BKN025 OVC035
     FM020600 19011KT 4SM -SHRA BR OVC008
     FM021200 27009KT P6SM OVC045
     FM021500 29014G25KT P6SM SCT250
     FM021700 30019G33KT P6SM SCT250
     FM022100 32014G25KT P6SM FEW250=

USA.gov is the U.S. government's official web portal to all federal, state and local government web resources and services.